sensor_id;sensor_type;location;lat;lon;timestamp;pressure;altitude;pressure_sealevel;temperature;humidity
53758;BME280;39674;59.860;30.672;2023-04-30T00:20:52;101026.50;;;2.14;74.27
53758;BME280;39674;59.860;30.672;2023-04-30T00:27:05;100984.91;;;2.04;72.80
53758;BME280;39674;59.860;30.672;2023-04-30T00:30:39;101113.34;;;2.89;73.62
53758;BME280;39674;59.860;30.672;2023-04-30T00:37:00;101015.88;;;2.29;72.32
53758;BME280;39674;59.860;30.672;2023-04-30T00:59:27;100911.97;;;2.65;69.41
53758;BME280;39674;59.860;30.672;2023-04-30T01:11:44;100904.09;;;3.21;68.48
53758;BME280;39674;59.860;30.672;2023-04-30T01:24:49;101031.63;;;4.39;68.62
53758;BME280;39674;59.860;30.672;2023-04-30T01:28:16;100895.59;;;3.56;69.25
53758;BME280;39674;59.860;30.672;2023-04-30T01:35:07;100967.53;;;4.19;69.70
53758;BME280;39674;59.860;30.672;2023-04-30T01:38:23;100841.81;;;3.47;69.33
53758;BME280;39674;59.860;30.672;2023-04-30T01:41:59;100841.69;;;3.55;69.59
53758;BME280;39674;59.860;30.672;2023-04-30T01:45:00;100979.91;;;4.52;69.92
53758;BME280;39674;59.860;30.672;2023-04-30T01:48:25;100845.69;;;3.71;70.16
53758;BME280;39674;59.860;30.672;2023-04-30T01:55:29;100815.31;;;3.65;69.72
53758;BME280;39674;59.860;30.672;2023-04-30T02:02:21;100871.63;;;4.21;70.08
53758;BME280;39674;59.860;30.672;2023-04-30T02:06:20;100905.75;;;4.54;69.91
53758;BME280;39674;59.860;30.672;2023-04-30T02:09:23;100793.00;;;3.91;69.55
53758;BME280;39674;59.860;30.672;2023-04-30T02:12:48;100803.19;;;4.02;69.17
53758;BME280;39674;59.860;30.672;2023-04-30T02:15:40;100812.38;;;4.20;69.17
53758;BME280;39674;59.860;30.672;2023-04-30T02:22:02;100825.63;;;4.50;68.58
53758;BME280;39674;59.860;30.672;2023-04-30T02:24:49;100825.53;;;4.53;68.12
53758;BME280;39674;59.860;30.672;2023-04-30T02:28:08;100899.25;;;5.07;67.91
53758;BME280;39674;59.860;30.672;2023-04-30T02:38:14;100739.13;;;4.23;66.71
53758;BME280;39674;59.860;30.672;2023-04-30T02:41:12;100744.97;;;4.33;66.45
53758;BME280;39674;59.860;30.672;2023-04-30T02:44:20;100806.59;;;4.79;66.62
53758;BME280;39674;59.860;30.672;2023-04-30T02:47:31;100755.91;;;4.49;65.83
53758;BME280;39674;59.860;30.672;2023-04-30T02:50:26;100783.16;;;4.75;66.05
53758;BME280;39674;59.860;30.672;2023-04-30T02:53:45;100738.56;;;4.45;66.08
53758;BME280;39674;59.860;30.672;2023-04-30T03:00:24;100738.56;;;4.45;65.97
53758;BME280;39674;59.860;30.672;2023-04-30T03:03:34;100868.28;;;5.23;65.03
53758;BME280;39674;59.860;30.672;2023-04-30T03:10:34;100718.69;;;4.38;64.73
53758;BME280;39674;59.860;30.672;2023-04-30T03:13:41;100719.66;;;4.33;64.74
53758;BME280;39674;59.860;30.672;2023-04-30T03:16:33;100838.19;;;5.05;65.59
53758;BME280;39674;59.860;30.672;2023-04-30T03:19:23;100808.22;;;4.84;65.25
53758;BME280;39674;59.860;30.672;2023-04-30T03:25:24;100833.84;;;5.04;65.38
53758;BME280;39674;59.860;30.672;2023-04-30T03:28:11;100709.38;;;4.27;64.73
53758;BME280;39674;59.860;30.672;2023-04-30T03:30:55;100796.22;;;4.75;64.87
53758;BME280;39674;59.860;30.672;2023-04-30T03:37:10;100847.03;;;5.01;66.11
53758;BME280;39674;59.860;30.672;2023-04-30T03:43:59;100702.50;;;4.23;65.51
53758;BME280;39674;59.860;30.672;2023-04-30T03:47:18;100748.41;;;4.70;65.66
53758;BME280;39674;59.860;30.672;2023-04-30T03:50:10;100736.66;;;4.85;65.04
53758;BME280;39674;59.860;30.672;2023-04-30T03:52:50;100680.44;;;4.66;65.08
53758;BME280;39674;59.860;30.672;2023-04-30T03:55:26;100740.19;;;5.15;63.56
53758;BME280;39674;59.860;30.672;2023-04-30T03:58:22;100685.88;;;4.92;63.70
53758;BME280;39674;59.860;30.672;2023-04-30T04:01:17;100670.81;;;4.98;63.49
53758;BME280;39674;59.860;30.672;2023-04-30T04:04:19;100657.19;;;4.87;63.48
53758;BME280;39674;59.860;30.672;2023-04-30T04:06:59;100671.69;;;4.99;62.72
53758;BME280;39674;59.860;30.672;2023-04-30T04:09:45;100745.88;;;5.59;63.70
53758;BME280;39674;59.860;30.672;2023-04-30T04:12:37;100670.78;;;5.30;63.51
53758;BME280;39674;59.860;30.672;2023-04-30T04:15:22;100790.72;;;6.08;62.86
53758;BME280;39674;59.860;30.672;2023-04-30T04:18:01;100781.75;;;6.16;62.30
53758;BME280;39674;59.860;30.672;2023-04-30T04:20:37;100782.41;;;6.22;61.52
53758;BME280;39674;59.860;30.672;2023-04-30T04:23:21;100645.97;;;5.42;62.31
53758;BME280;39674;59.860;30.672;2023-04-30T04:26:09;100649.13;;;5.53;61.21
53758;BME280;39674;59.860;30.672;2023-04-30T04:28:45;100731.31;;;6.07;61.35
53758;BME280;39674;59.860;30.672;2023-04-30T04:31:36;100726.00;;;6.09;61.49
53758;BME280;39674;59.860;30.672;2023-04-30T04:34:43;100755.75;;;6.35;61.70
53758;BME280;39674;59.860;30.672;2023-04-30T04:37:31;100771.28;;;6.41;62.01
53758;BME280;39674;59.860;30.672;2023-04-30T04:40:01;100723.19;;;6.15;61.43
53758;BME280;39674;59.860;30.672;2023-04-30T04:42:36;100721.16;;;6.23;61.10
53758;BME280;39674;59.860;30.672;2023-04-30T04:45:10;100700.81;;;6.30;60.54
53758;BME280;39674;59.860;30.672;2023-04-30T04:47:45;100736.25;;;6.69;60.68
53758;BME280;39674;59.860;30.672;2023-04-30T04:50:20;100697.41;;;6.53;58.78
53758;BME280;39674;59.860;30.672;2023-04-30T04:52:56;100734.63;;;6.90;59.10
53758;BME280;39674;59.860;30.672;2023-04-30T04:55:28;100741.91;;;7.07;59.03
53758;BME280;39674;59.860;30.672;2023-04-30T04:58:05;100730.25;;;7.14;58.34
53758;BME280;39674;59.860;30.672;2023-04-30T05:04:15;100606.59;;;6.49;57.49
53758;BME280;39674;59.860;30.672;2023-04-30T05:07:16;100668.59;;;7.01;58.14
53758;BME280;39674;59.860;30.672;2023-04-30T05:10:01;100732.25;;;7.77;57.68
53758;BME280;39674;59.860;30.672;2023-04-30T05:15:06;100674.03;;;7.86;55.56
53758;BME280;39674;59.860;30.672;2023-04-30T05:16:31;100681.38;;;8.21;55.00
53758;BME280;39674;59.860;30.672;2023-04-30T05:19:07;100662.41;;;8.35;53.95
53758;BME280;39674;59.860;30.672;2023-04-30T05:21:42;100664.00;;;8.60;53.21
53758;BME280;39674;59.860;30.672;2023-04-30T05:24:48;100661.78;;;8.90;53.33
53758;BME280;39674;59.860;30.672;2023-04-30T05:27:25;100664.00;;;9.19;52.09
53758;BME280;39674;59.860;30.672;2023-04-30T05:30:07;100693.44;;;9.65;52.34
53758;BME280;39674;59.860;30.672;2023-04-30T05:32:42;100606.78;;;9.21;51.49
53758;BME280;39674;59.860;30.672;2023-04-30T05:35:20;100677.16;;;9.74;50.49
53758;BME280;39674;59.860;30.672;2023-04-30T05:37:59;100650.59;;;9.60;50.76
53758;BME280;39674;59.860;30.672;2023-04-30T05:40:49;100593.97;;;9.32;50.57
53758;BME280;39674;59.860;30.672;2023-04-30T05:43:39;100572.41;;;9.05;51.22
53758;BME280;39674;59.860;30.672;2023-04-30T05:46:57;100615.66;;;9.37;51.08
53758;BME280;39674;59.860;30.672;2023-04-30T05:50:21;100564.69;;;9.19;51.13
53758;BME280;39674;59.860;30.672;2023-04-30T06:15:53;100657.19;;;10.91;49.45
53758;BME280;39674;59.860;30.672;2023-04-30T06:19:10;100526.34;;;10.01;48.33
53758;BME280;39674;59.860;30.672;2023-04-30T06:22:34;100526.53;;;9.98;49.10
53758;BME280;39674;59.860;30.672;2023-04-30T06:30:06;100590.44;;;11.20;47.79
53758;BME280;39674;59.860;30.672;2023-04-30T06:39:16;100570.00;;;11.07;46.95
53758;BME280;39674;59.860;30.672;2023-04-30T06:45:47;100547.97;;;10.91;48.00
53758;BME280;39674;59.860;30.672;2023-04-30T06:50:29;100529.25;;;10.80;46.93
53758;BME280;39674;59.860;30.672;2023-04-30T06:56:53;100608.75;;;11.23;47.17
53758;BME280;39674;59.860;30.672;2023-04-30T07:00:15;100649.28;;;11.55;46.41
53758;BME280;39674;59.860;30.672;2023-04-30T07:11:35;100583.16;;;11.86;46.66
53758;BME280;39674;59.860;30.672;2023-04-30T07:18:31;100587.38;;;12.04;44.47
53758;BME280;39674;59.860;30.672;2023-04-30T07:32:58;100569.38;;;11.34;44.21
53758;BME280;39674;59.860;30.672;2023-04-30T07:40:42;100566.91;;;10.99;44.71
53758;BME280;39674;59.860;30.672;2023-04-30T07:44:05;100564.19;;;10.85;45.80
53758;BME280;39674;59.860;30.672;2023-04-30T07:58:09;100631.13;;;10.68;49.63
53758;BME280;39674;59.860;30.672;2023-04-30T08:05:59;100593.06;;;10.21;53.35
53758;BME280;39674;59.860;30.672;2023-04-30T08:13:19;100635.75;;;10.29;56.07
53758;BME280;39674;59.860;30.672;2023-04-30T08:18:21;100692.47;;;10.57;56.47
53758;BME280;39674;59.860;30.672;2023-04-30T08:20:26;100665.72;;;10.28;56.40
53758;BME280;39674;59.860;30.672;2023-04-30T08:28:12;100715.66;;;10.68;57.20
53758;BME280;39674;59.860;30.672;2023-04-30T08:41:13;100556.16;;;10.03;55.45
53758;BME280;39674;59.860;30.672;2023-04-30T08:44:58;100696.47;;;10.82;54.51
53758;BME280;39674;59.860;30.672;2023-04-30T08:55:54;100611.38;;;10.06;54.33
53758;BME280;39674;59.860;30.672;2023-04-30T09:06:38;100623.59;;;10.26;53.50
53758;BME280;39674;59.860;30.672;2023-04-30T09:10:04;100736.06;;;10.99;53.97
53758;BME280;39674;59.860;30.672;2023-04-30T09:14:01;100641.81;;;10.49;53.65
53758;BME280;39674;59.860;30.672;2023-04-30T09:34:39;100633.13;;;9.76;59.75
53758;BME280;39674;59.860;30.672;2023-04-30T09:41:30;100767.66;;;10.31;63.54
53758;BME280;39674;59.860;30.672;2023-04-30T09:45:34;100655.28;;;9.36;67.07
53758;BME280;39674;59.860;30.672;2023-04-30T09:53:19;100790.22;;;9.63;74.07
53758;BME280;39674;59.860;30.672;2023-04-30T10:05:29;100672.47;;;8.25;80.96
53758;BME280;39674;59.860;30.672;2023-04-30T10:32:12;100785.38;;;8.74;79.75
53758;BME280;39674;59.860;30.672;2023-04-30T10:36:22;100759.94;;;8.53;80.50
53758;BME280;39674;59.860;30.672;2023-04-30T10:44:09;100690.47;;;7.92;82.17
53758;BME280;39674;59.860;30.672;2023-04-30T12:23:33;100847.84;;;7.06;100.00
53758;BME280;39674;59.860;30.672;2023-04-30T12:37:53;100855.28;;;7.20;100.00
53758;BME280;39674;59.860;30.672;2023-04-30T13:55:48;100735.50;;;7.14;100.00
53758;BME280;39674;59.860;30.672;2023-04-30T14:02:10;100783.28;;;7.49;100.00
53758;BME280;39674;59.860;30.672;2023-04-30T14:04:48;100787.66;;;7.49;100.00
53758;BME280;39674;59.860;30.672;2023-04-30T14:08:12;100842.28;;;7.88;100.00
53758;BME280;39674;59.860;30.672;2023-04-30T14:14:54;100783.97;;;7.54;100.00
53758;BME280;39674;59.860;30.672;2023-04-30T14:22:28;100724.69;;;7.23;100.00
53758;BME280;39674;59.860;30.672;2023-04-30T14:25:07;100754.63;;;7.42;100.00
53758;BME280;39674;59.860;30.672;2023-04-30T14:27:54;100847.81;;;8.04;100.00
53758;BME280;39674;59.860;30.672;2023-04-30T14:31:01;100728.25;;;7.45;100.00
53758;BME280;39674;59.860;30.672;2023-04-30T14:33:36;100840.22;;;8.18;99.08
53758;BME280;39674;59.860;30.672;2023-04-30T14:36:26;100793.38;;;8.06;98.69
53758;BME280;39674;59.860;30.672;2023-04-30T14:43:14;100712.75;;;7.61;95.84
53758;BME280;39674;59.860;30.672;2023-04-30T14:49:22;100779.16;;;8.10;96.78
53758;BME280;39674;59.860;30.672;2023-04-30T14:52:02;100711.88;;;7.60;96.25
53758;BME280;39674;59.860;30.672;2023-04-30T14:54:45;100709.56;;;7.52;95.99
53758;BME280;39674;59.860;30.672;2023-04-30T14:57:19;100719.72;;;7.62;97.09
53758;BME280;39674;59.860;30.672;2023-04-30T14:59:51;100754.91;;;7.81;97.20
53758;BME280;39674;59.860;30.672;2023-04-30T15:02:43;100780.03;;;7.89;93.67
53758;BME280;39674;59.860;30.672;2023-04-30T15:05:32;100788.69;;;7.91;92.99
53758;BME280;39674;59.860;30.672;2023-04-30T15:16:02;100728.81;;;7.29;91.46
53758;BME280;39674;59.860;30.672;2023-04-30T15:18:50;100738.50;;;7.29;90.88
53758;BME280;39674;59.860;30.672;2023-04-30T15:22:33;100854.22;;;7.97;90.95
53758;BME280;39674;59.860;30.672;2023-04-30T15:25:36;100783.88;;;7.56;89.80
53758;BME280;39674;59.860;30.672;2023-04-30T15:33:31;100806.06;;;7.73;89.57
53758;BME280;39674;59.860;30.672;2023-04-30T15:36:56;100721.34;;;7.18;89.54
53758;BME280;39674;59.860;30.672;2023-04-30T15:39:59;100728.31;;;7.19;89.32
53758;BME280;39674;59.860;30.672;2023-04-30T15:42:59;100801.22;;;7.62;89.57
53758;BME280;39674;59.860;30.672;2023-04-30T15:45:47;100798.34;;;7.68;89.20
53758;BME280;39674;59.860;30.672;2023-04-30T15:48:46;100802.47;;;7.75;88.68
53758;BME280;39674;59.860;30.672;2023-04-30T15:51:22;100842.78;;;7.98;88.88
53758;BME280;39674;59.860;30.672;2023-04-30T15:54:00;100808.63;;;7.74;88.01
53758;BME280;39674;59.860;30.672;2023-04-30T15:56:36;100853.31;;;7.98;86.51
53758;BME280;39674;59.860;30.672;2023-04-30T15:59:13;100792.81;;;7.52;86.88
53758;BME280;39674;59.860;30.672;2023-04-30T16:02:15;100829.66;;;7.74;86.76
53758;BME280;39674;59.860;30.672;2023-04-30T16:05:01;100779.19;;;7.41;86.75
53758;BME280;39674;59.860;30.672;2023-04-30T16:16:04;100802.94;;;7.63;85.98
53758;BME280;39674;59.860;30.672;2023-04-30T16:20:20;100730.69;;;7.27;85.79
53758;BME280;39674;59.860;30.672;2023-04-30T16:21:53;100849.75;;;7.99;86.24
53758;BME280;39674;59.860;30.672;2023-04-30T16:24:45;100848.03;;;7.98;86.50
53758;BME280;39674;59.860;30.672;2023-04-30T16:27:43;100805.09;;;7.75;85.93
53758;BME280;39674;59.860;30.672;2023-04-30T16:30:54;100828.97;;;7.93;86.05
53758;BME280;39674;59.860;30.672;2023-04-30T16:34:06;100727.75;;;7.35;84.89
53758;BME280;39674;59.860;30.672;2023-04-30T16:37:34;100857.25;;;8.10;83.79
53758;BME280;39674;59.860;30.672;2023-04-30T16:40:51;100748.88;;;7.32;84.21
53758;BME280;39674;59.860;30.672;2023-04-30T16:46:56;100870.44;;;7.86;85.57
53758;BME280;39674;59.860;30.672;2023-04-30T16:49:37;100793.31;;;7.38;85.51
53758;BME280;39674;59.860;30.672;2023-04-30T16:52:23;100749.56;;;7.13;86.05
53758;BME280;39674;59.860;30.672;2023-04-30T16:55:05;100785.78;;;7.29;85.61
53758;BME280;39674;59.860;30.672;2023-04-30T16:57:48;100828.00;;;7.48;85.83
53758;BME280;39674;59.860;30.672;2023-04-30T17:00:24;100819.25;;;7.23;86.51
53758;BME280;39674;59.860;30.672;2023-04-30T17:02:57;100880.34;;;7.54;86.72
53758;BME280;39674;59.860;30.672;2023-04-30T17:05:32;100783.13;;;6.80;87.69
53758;BME280;39674;59.860;30.672;2023-04-30T17:08:30;100768.03;;;6.61;88.78
53758;BME280;39674;59.860;30.672;2023-04-30T17:11:19;100812.00;;;6.80;90.27
53758;BME280;39674;59.860;30.672;2023-04-30T17:14:29;100831.03;;;6.86;90.18
53758;BME280;39674;59.860;30.672;2023-04-30T17:17:14;100757.47;;;6.36;91.36
53758;BME280;39674;59.860;30.672;2023-04-30T17:20:04;100792.09;;;6.47;92.96
53758;BME280;39674;59.860;30.672;2023-04-30T17:23:05;100812.56;;;6.63;93.14
53758;BME280;39674;59.860;30.672;2023-04-30T17:25:53;100841.72;;;6.80;93.18
53758;BME280;39674;59.860;30.672;2023-04-30T17:29:02;100829.03;;;6.68;94.96
53758;BME280;39674;59.860;30.672;2023-04-30T17:31:53;100826.59;;;6.62;95.19
53758;BME280;39674;59.860;30.672;2023-04-30T17:34:34;100840.00;;;6.54;95.86
53758;BME280;39674;59.860;30.672;2023-04-30T17:37:23;100773.25;;;6.07;96.33
53758;BME280;39674;59.860;30.672;2023-04-30T17:40:09;100883.59;;;6.85;94.27
53758;BME280;39674;59.860;30.672;2023-04-30T17:43:00;100864.78;;;6.72;94.71
53758;BME280;39674;59.860;30.672;2023-04-30T17:45:34;100770.38;;;6.15;94.58
53758;BME280;39674;59.860;30.672;2023-04-30T17:48:30;100825.28;;;6.48;94.18
53758;BME280;39674;59.860;30.672;2023-04-30T17:51:15;100883.78;;;6.79;93.96
53758;BME280;39674;59.860;30.672;2023-04-30T17:54:06;100806.72;;;6.28;94.28
53758;BME280;39674;59.860;30.672;2023-04-30T17:57:33;100774.47;;;5.95;92.65
53758;BME280;39674;59.860;30.672;2023-04-30T18:00:44;100845.22;;;6.27;93.16
53758;BME280;39674;59.860;30.672;2023-04-30T18:03:37;100779.50;;;5.73;92.59
53758;BME280;39674;59.860;30.672;2023-04-30T18:06:46;100816.38;;;5.99;94.33
53758;BME280;39674;59.860;30.672;2023-04-30T18:09:47;100816.25;;;6.02;95.97
53758;BME280;39674;59.860;30.672;2023-04-30T18:13:20;100889.09;;;6.50;95.57
53758;BME280;39674;59.860;30.672;2023-04-30T18:16:13;100755.97;;;5.72;94.48
53758;BME280;39674;59.860;30.672;2023-04-30T18:19:28;100775.03;;;5.77;94.01
53758;BME280;39674;59.860;30.672;2023-04-30T18:22:37;100813.97;;;5.89;93.75
53758;BME280;39674;59.860;30.672;2023-04-30T18:29:18;100892.50;;;6.24;96.10
53758;BME280;39674;59.860;30.672;2023-04-30T18:36:35;100778.34;;;5.54;93.28
53758;BME280;39674;59.860;30.672;2023-04-30T18:40:07;100780.31;;;5.47;94.01
53758;BME280;39674;59.860;30.672;2023-04-30T18:42:54;100886.47;;;5.90;95.71
53758;BME280;39674;59.860;30.672;2023-04-30T18:50:16;100841.63;;;5.70;95.19
53758;BME280;39674;59.860;30.672;2023-04-30T18:53:53;100819.13;;;5.62;95.74
53758;BME280;39674;59.860;30.672;2023-04-30T18:57:27;100788.22;;;5.44;95.12
53758;BME280;39674;59.860;30.672;2023-04-30T19:00:23;100860.34;;;5.87;96.31
53758;BME280;39674;59.860;30.672;2023-04-30T19:03:27;100829.44;;;5.69;95.22
53758;BME280;39674;59.860;30.672;2023-04-30T19:10:20;100907.06;;;6.06;94.47
53758;BME280;39674;59.860;30.672;2023-04-30T19:14:19;100789.00;;;5.16;96.83
53758;BME280;39674;59.860;30.672;2023-04-30T19:16:46;100786.38;;;5.18;95.91
53758;BME280;39674;59.860;30.672;2023-04-30T19:19:38;100821.28;;;5.48;95.19
53758;BME280;39674;59.860;30.672;2023-04-30T19:22:15;100855.03;;;5.59;94.20
53758;BME280;39674;59.860;30.672;2023-04-30T19:32:14;100850.09;;;5.50;94.12
53758;BME280;39674;59.860;30.672;2023-04-30T19:35:17;100850.09;;;5.50;94.68
53758;BME280;39674;59.860;30.672;2023-04-30T19:38:52;100846.75;;;5.43;94.54
53758;BME280;39674;59.860;30.672;2023-04-30T19:41:49;100774.16;;;4.85;95.19
53758;BME280;39674;59.860;30.672;2023-04-30T20:10:09;100862.59;;;4.71;98.02
53758;BME280;39674;59.860;30.672;2023-04-30T20:58:28;100753.38;;;3.72;99.92
53758;BME280;39674;59.860;30.672;2023-04-30T21:07:22;100862.66;;;4.31;100.00
53758;BME280;39674;59.860;30.672;2023-04-30T21:09:58;100761.56;;;3.55;100.00
53758;BME280;39674;59.860;30.672;2023-04-30T21:12:32;100823.66;;;3.83;100.00
53758;BME280;39674;59.860;30.672;2023-04-30T21:15:02;100827.41;;;3.71;100.00
53758;BME280;39674;59.860;30.672;2023-04-30T21:17:36;100851.66;;;3.78;100.00
53758;BME280;39674;59.860;30.672;2023-04-30T21:20:10;100765.75;;;3.20;100.00
53758;BME280;39674;59.860;30.672;2023-04-30T21:22:52;100901.53;;;4.08;100.00
53758;BME280;39674;59.860;30.672;2023-04-30T21:25:30;100818.31;;;3.48;100.00
53758;BME280;39674;59.860;30.672;2023-04-30T21:28:14;100843.28;;;3.60;100.00
53758;BME280;39674;59.860;30.672;2023-04-30T21:30:55;100765.97;;;3.11;100.00
53758;BME280;39674;59.860;30.672;2023-04-30T21:33:35;100821.84;;;3.46;100.00
53758;BME280;39674;59.860;30.672;2023-04-30T21:39:34;100747.22;;;2.90;100.00
53758;BME280;39674;59.860;30.672;2023-04-30T21:44:22;100752.44;;;2.90;100.00
53758;BME280;39674;59.860;30.672;2023-04-30T21:46:50;100816.16;;;3.25;100.00
53758;BME280;39674;59.860;30.672;2023-04-30T21:49:40;100862.59;;;3.53;100.00
53758;BME280;39674;59.860;30.672;2023-04-30T21:52:18;100903.25;;;3.66;100.00
53758;BME280;39674;59.860;30.672;2023-04-30T21:55:00;100803.47;;;3.05;100.00
53758;BME280;39674;59.860;30.672;2023-04-30T21:57:59;100814.91;;;2.99;100.00
53758;BME280;39674;59.860;30.672;2023-04-30T22:01:21;100840.69;;;3.15;100.00
53758;BME280;39674;59.860;30.672;2023-04-30T22:03:56;100766.97;;;2.55;100.00
53758;BME280;39674;59.860;30.672;2023-04-30T22:06:37;100836.06;;;2.81;100.00
53758;BME280;39674;59.860;30.672;2023-04-30T22:09:17;100772.69;;;2.24;100.00
53758;BME280;39674;59.860;30.672;2023-04-30T22:12:33;100767.69;;;2.12;100.00
53758;BME280;39674;59.860;30.672;2023-04-30T22:15:12;100904.34;;;3.06;100.00
53758;BME280;39674;59.860;30.672;2023-04-30T22:18:11;100853.63;;;2.72;100.00
53758;BME280;39674;59.860;30.672;2023-04-30T22:20:57;100857.38;;;2.54;100.00
53758;BME280;39674;59.860;30.672;2023-04-30T22:23:37;100824.78;;;2.27;100.00
53758;BME280;39674;59.860;30.672;2023-04-30T22:26:16;100754.34;;;1.74;100.00
53758;BME280;39674;59.860;30.672;2023-04-30T22:29:00;100909.38;;;2.65;100.00
53758;BME280;39674;59.860;30.672;2023-04-30T22:31:33;100821.38;;;2.22;100.00
53758;BME280;39674;59.860;30.672;2023-04-30T22:34:08;100885.94;;;2.64;100.00
53758;BME280;39674;59.860;30.672;2023-04-30T22:36:45;100846.06;;;2.55;100.00
53758;BME280;39674;59.860;30.672;2023-04-30T22:39:19;100798.72;;;2.27;100.00
53758;BME280;39674;59.860;30.672;2023-04-30T22:42:03;100857.16;;;2.68;100.00
53758;BME280;39674;59.860;30.672;2023-04-30T22:44:55;100893.06;;;3.05;100.00
53758;BME280;39674;59.860;30.672;2023-04-30T22:47:31;100899.91;;;3.11;100.00
53758;BME280;39674;59.860;30.672;2023-04-30T22:50:02;100820.63;;;2.68;100.00
53758;BME280;39674;59.860;30.672;2023-04-30T22:52:35;100890.28;;;3.16;100.00
53758;BME280;39674;59.860;30.672;2023-04-30T22:55:33;100842.75;;;2.97;100.00
53758;BME280;39674;59.860;30.672;2023-04-30T23:00:46;100883.06;;;3.29;100.00
53758;BME280;39674;59.860;30.672;2023-04-30T23:03:18;100758.22;;;2.59;100.00
53758;BME280;39674;59.860;30.672;2023-04-30T23:05:53;100862.25;;;3.26;100.00
53758;BME280;39674;59.860;30.672;2023-04-30T23:08:39;100832.84;;;3.15;100.00
53758;BME280;39674;59.860;30.672;2023-04-30T23:11:08;100794.13;;;2.93;100.00
53758;BME280;39674;59.860;30.672;2023-04-30T23:13:46;100876.69;;;3.46;100.00
53758;BME280;39674;59.860;30.672;2023-04-30T23:16:19;100866.28;;;3.43;100.00
53758;BME280;39674;59.860;30.672;2023-04-30T23:18:52;100821.53;;;3.16;100.00
53758;BME280;39674;59.860;30.672;2023-04-30T23:21:24;100788.84;;;2.96;100.00
53758;BME280;39674;59.860;30.672;2023-04-30T23:24:00;100813.78;;;3.11;100.00
53758;BME280;39674;59.860;30.672;2023-04-30T23:26:30;100804.47;;;2.99;100.00
53758;BME280;39674;59.860;30.672;2023-04-30T23:29:03;100794.13;;;2.93;100.00
53758;BME280;39674;59.860;30.672;2023-04-30T23:31:54;100869.84;;;3.39;100.00
53758;BME280;39674;59.860;30.672;2023-04-30T23:34:30;100845.81;;;3.19;100.00
53758;BME280;39674;59.860;30.672;2023-04-30T23:37:03;100821.69;;;3.08;100.00
53758;BME280;39674;59.860;30.672;2023-04-30T23:39:41;100822.50;;;3.12;100.00
53758;BME280;39674;59.860;30.672;2023-04-30T23:42:18;100794.94;;;2.95;100.00
53758;BME280;39674;59.860;30.672;2023-04-30T23:44:52;100831.97;;;3.16;100.00
53758;BME280;39674;59.860;30.672;2023-04-30T23:47:38;100800.94;;;3.00;100.00
53758;BME280;39674;59.860;30.672;2023-04-30T23:50:17;100821.53;;;3.16;100.00
53758;BME280;39674;59.860;30.672;2023-04-30T23:52:49;100842.34;;;3.20;100.00
53758;BME280;39674;59.860;30.672;2023-04-30T23:55:24;100840.56;;;3.23;100.00
53758;BME280;39674;59.860;30.672;2023-04-30T23:57:59;100833.63;;;3.20;100.00
